sensor_id;sensor_type;location;lat;lon;timestamp;pressure;altitude;pressure_sealevel;temperature;humidity
68948;BME280;55996;49.546;7.400;2022-11-20T00:00:00;98227.66;;;6.20;100.00
68948;BME280;55996;49.546;7.400;2022-11-20T00:02:25;98234.75;;;6.11;100.00
68948;BME280;55996;49.546;7.400;2022-11-20T00:04:51;98233.28;;;6.01;100.00
68948;BME280;55996;49.546;7.400;2022-11-20T00:07:16;98227.66;;;5.79;100.00
68948;BME280;55996;49.546;7.400;2022-11-20T00:09:42;98230.88;;;5.90;100.00
68948;BME280;55996;49.546;7.400;2022-11-20T00:12:07;98238.69;;;5.89;100.00
68948;BME280;55996;49.546;7.400;2022-11-20T00:14:33;98231.00;;;5.86;100.00
68948;BME280;55996;49.546;7.400;2022-11-20T00:16:58;98224.84;;;5.90;100.00
68948;BME280;55996;49.546;7.400;2022-11-20T00:19:23;98229.53;;;5.72;100.00
68948;BME280;55996;49.546;7.400;2022-11-20T00:21:49;98229.63;;;5.68;100.00
68948;BME280;55996;49.546;7.400;2022-11-20T00:24:16;98224.78;;;5.93;100.00
68948;BME280;55996;49.546;7.400;2022-11-20T00:26:42;98228.88;;;6.05;100.00
68948;BME280;55996;49.546;7.400;2022-11-20T00:29:08;98231.44;;;5.64;100.00
68948;BME280;55996;49.546;7.400;2022-11-20T00:31:35;98224.88;;;5.46;100.00
68948;BME280;55996;49.546;7.400;2022-11-20T00:34:00;98221.78;;;5.28;100.00
68948;BME280;55996;49.546;7.400;2022-11-20T00:36:27;98231.75;;;5.47;100.00
68948;BME280;55996;49.546;7.400;2022-11-20T00:38:55;98227.31;;;5.54;100.00
68948;BME280;55996;49.546;7.400;2022-11-20T00:41:21;98234.94;;;5.61;100.00
68948;BME280;55996;49.546;7.400;2022-11-20T00:43:47;98233.84;;;5.73;100.00
68948;BME280;55996;49.546;7.400;2022-11-20T00:46:17;98234.50;;;5.83;100.00
68948;BME280;55996;49.546;7.400;2022-11-20T00:48:43;98228.13;;;5.98;100.00
68948;BME280;55996;49.546;7.400;2022-11-20T00:51:11;98228.00;;;6.06;100.00
68948;BME280;55996;49.546;7.400;2022-11-20T00:53:37;98220.03;;;6.13;100.00
68948;BME280;55996;49.546;7.400;2022-11-20T00:56:05;98230.25;;;6.20;100.00
68948;BME280;55996;49.546;7.400;2022-11-20T00:58:36;98223.78;;;6.00;100.00
68948;BME280;55996;49.546;7.400;2022-11-20T01:03:35;98224.91;;;5.87;100.00
68948;BME280;55996;49.546;7.400;2022-11-20T01:06:06;98222.38;;;5.84;100.00
68948;BME280;55996;49.546;7.400;2022-11-20T01:08:35;98210.06;;;5.93;100.00
68948;BME280;55996;49.546;7.400;2022-11-20T01:11:06;98224.78;;;5.93;100.00
68948;BME280;55996;49.546;7.400;2022-11-20T01:13:32;98226.34;;;6.02;100.00
68948;BME280;55996;49.546;7.400;2022-11-20T01:16:30;98228.03;;;6.04;100.00
68948;BME280;55996;49.546;7.400;2022-11-20T01:18:56;98225.34;;;6.07;100.00
68948;BME280;55996;49.546;7.400;2022-11-20T01:21:25;98226.31;;;6.03;100.00
68948;BME280;55996;49.546;7.400;2022-11-20T01:23:52;98220.19;;;6.06;100.00
68948;BME280;55996;49.546;7.400;2022-11-20T01:26:20;98218.34;;;6.11;100.00
68948;BME280;55996;49.546;7.400;2022-11-20T01:28:46;98214.31;;;5.96;100.00
68948;BME280;55996;49.546;7.400;2022-11-20T01:33:40;98219.78;;;5.84;100.00
68948;BME280;55996;49.546;7.400;2022-11-20T01:36:07;98215.25;;;5.93;100.00
68948;BME280;55996;49.546;7.400;2022-11-20T01:38:33;98214.38;;;5.94;100.00
68948;BME280;55996;49.546;7.400;2022-11-20T01:40:58;98221.13;;;6.03;100.00
68948;BME280;55996;49.546;7.400;2022-11-20T01:43:24;98214.78;;;6.15;100.00
68948;BME280;55996;49.546;7.400;2022-11-20T01:48:17;98205.19;;;6.19;100.00
68948;BME280;55996;49.546;7.400;2022-11-20T01:50:44;98213.72;;;6.25;100.00
68948;BME280;55996;49.546;7.400;2022-11-20T01:53:12;98207.66;;;6.25;100.00
68948;BME280;55996;49.546;7.400;2022-11-20T01:55:42;98205.03;;;6.26;100.00
68948;BME280;55996;49.546;7.400;2022-11-20T01:58:10;98194.53;;;6.31;100.00
68948;BME280;55996;49.546;7.400;2022-11-20T02:00:36;98203.13;;;6.33;100.00
68948;BME280;55996;49.546;7.400;2022-11-20T02:03:20;98203.78;;;6.43;100.00
68948;BME280;55996;49.546;7.400;2022-11-20T02:08:33;98195.34;;;6.33;100.00
68948;BME280;55996;49.546;7.400;2022-11-20T02:10:59;98198.22;;;6.21;100.00
68948;BME280;55996;49.546;7.400;2022-11-20T02:13:24;98206.03;;;6.21;100.00
68948;BME280;55996;49.546;7.400;2022-11-20T02:16:26;98214.72;;;6.18;100.00
68948;BME280;55996;49.546;7.400;2022-11-20T02:18:55;98212.06;;;6.21;100.00
68948;BME280;55996;49.546;7.400;2022-11-20T02:26:31;98222.19;;;6.32;100.00
68948;BME280;55996;49.546;7.400;2022-11-20T02:28:59;98213.22;;;6.45;100.00
68948;BME280;55996;49.546;7.400;2022-11-20T02:31:26;98208.00;;;6.47;100.00
68948;BME280;55996;49.546;7.400;2022-11-20T02:33:56;98196.81;;;6.45;100.00
68948;BME280;55996;49.546;7.400;2022-11-20T02:36:24;98206.28;;;6.48;100.00
68948;BME280;55996;49.546;7.400;2022-11-20T02:38:51;98191.72;;;6.40;100.00
68948;BME280;55996;49.546;7.400;2022-11-20T02:41:17;98201.28;;;6.38;100.00
68948;BME280;55996;49.546;7.400;2022-11-20T02:43:42;98189.34;;;6.31;100.00
68948;BME280;55996;49.546;7.400;2022-11-20T02:46:08;98191.13;;;6.29;100.00
68948;BME280;55996;49.546;7.400;2022-11-20T02:48:33;98181.53;;;6.31;100.00
68948;BME280;55996;49.546;7.400;2022-11-20T02:51:00;98171.41;;;6.22;100.00
68948;BME280;55996;49.546;7.400;2022-11-20T02:53:25;98170.56;;;6.20;100.00
68948;BME280;55996;49.546;7.400;2022-11-20T02:55:51;98173.34;;;6.12;100.00
68948;BME280;55996;49.546;7.400;2022-11-20T02:58:16;98177.47;;;6.21;100.00
68948;BME280;55996;49.546;7.400;2022-11-20T03:00:41;98181.59;;;6.29;100.00
68948;BME280;55996;49.546;7.400;2022-11-20T03:03:07;98183.78;;;6.10;100.00
68948;BME280;55996;49.546;7.400;2022-11-20T03:05:32;98175.25;;;6.04;100.00
68948;BME280;55996;49.546;7.400;2022-11-20T03:07:58;98182.94;;;6.08;100.00
68948;BME280;55996;49.546;7.400;2022-11-20T03:10:23;98185.44;;;6.13;100.00
68948;BME280;55996;49.546;7.400;2022-11-20T03:12:55;98182.66;;;6.21;100.00
68948;BME280;55996;49.546;7.400;2022-11-20T03:15:23;98191.88;;;6.34;100.00
68948;BME280;55996;49.546;7.400;2022-11-20T03:17:48;98183.94;;;6.40;100.00
68948;BME280;55996;49.546;7.400;2022-11-20T03:20:13;98178.78;;;6.37;100.00
68948;BME280;55996;49.546;7.400;2022-11-20T03:22:39;98178.94;;;6.33;100.00
68948;BME280;55996;49.546;7.400;2022-11-20T03:25:04;98157.59;;;6.20;100.00
68948;BME280;55996;49.546;7.400;2022-11-20T03:27:34;98166.97;;;6.25;100.00
68948;BME280;55996;49.546;7.400;2022-11-20T03:29:59;98159.31;;;6.21;100.00
68948;BME280;55996;49.546;7.400;2022-11-20T03:32:25;98160.03;;;6.26;100.00
68948;BME280;55996;49.546;7.400;2022-11-20T03:34:50;98161.81;;;6.24;100.00
68948;BME280;55996;49.546;7.400;2022-11-20T03:37:15;98170.31;;;6.30;100.00
68948;BME280;55996;49.546;7.400;2022-11-20T03:39:41;98162.34;;;6.38;100.00
68948;BME280;55996;49.546;7.400;2022-11-20T03:42:06;98168.94;;;6.52;100.00
68948;BME280;55996;49.546;7.400;2022-11-20T03:44:52;98163.00;;;6.46;100.00
68948;BME280;55996;49.546;7.400;2022-11-20T03:47:17;98139.16;;;6.30;100.00
68948;BME280;55996;49.546;7.400;2022-11-20T03:49:42;98167.41;;;6.43;100.00
68948;BME280;55996;49.546;7.400;2022-11-20T03:52:08;98160.81;;;6.29;100.00
68948;BME280;55996;49.546;7.400;2022-11-20T03:54:33;98162.06;;;6.49;100.00
68948;BME280;55996;49.546;7.400;2022-11-20T03:56:58;98162.28;;;6.40;100.00
68948;BME280;55996;49.546;7.400;2022-11-20T03:59:24;98161.97;;;6.52;100.00
68948;BME280;55996;49.546;7.400;2022-11-20T04:01:49;98171.44;;;6.56;100.00
68948;BME280;55996;49.546;7.400;2022-11-20T04:04:15;98176.38;;;6.66;100.00
68948;BME280;55996;49.546;7.400;2022-11-20T04:06:40;98165.88;;;6.70;100.00
68948;BME280;55996;49.546;7.400;2022-11-20T04:09:06;98159.38;;;6.87;100.00
68948;BME280;55996;49.546;7.400;2022-11-20T04:11:34;98144.38;;;6.97;100.00
68948;BME280;55996;49.546;7.400;2022-11-20T04:14:02;98148.03;;;6.91;100.00
68948;BME280;55996;49.546;7.400;2022-11-20T04:16:33;98147.16;;;6.90;100.00
68948;BME280;55996;49.546;7.400;2022-11-20T04:19:02;98147.03;;;6.95;100.00
68948;BME280;55996;49.546;7.400;2022-11-20T04:21:28;98150.63;;;6.89;100.00
68948;BME280;55996;49.546;7.400;2022-11-20T04:23:55;98126.56;;;6.83;100.00
68948;BME280;55996;49.546;7.400;2022-11-20T04:26:22;98147.91;;;6.94;100.00
68948;BME280;55996;49.546;7.400;2022-11-20T04:28:48;98156.16;;;6.77;100.00
68948;BME280;55996;49.546;7.400;2022-11-20T04:31:16;98149.13;;;6.81;100.00
68948;BME280;55996;49.546;7.400;2022-11-20T04:33:42;98146.63;;;6.77;100.00
68948;BME280;55996;49.546;7.400;2022-11-20T04:36:22;98160.50;;;6.76;100.00
68948;BME280;55996;49.546;7.400;2022-11-20T04:38:52;98151.56;;;6.87;100.00
68948;BME280;55996;49.546;7.400;2022-11-20T04:41:20;98156.59;;;6.93;100.00
68948;BME280;55996;49.546;7.400;2022-11-20T04:43:47;98149.63;;;6.95;100.00
68948;BME280;55996;49.546;7.400;2022-11-20T04:46:17;98148.75;;;6.96;100.00
68948;BME280;55996;49.546;7.400;2022-11-20T04:48:43;98151.91;;;7.07;100.00
68948;BME280;55996;49.546;7.400;2022-11-20T04:51:09;98145.09;;;7.03;100.00
68948;BME280;55996;49.546;7.400;2022-11-20T04:53:34;98149.34;;;7.06;100.00
68948;BME280;55996;49.546;7.400;2022-11-20T04:56:00;98153.69;;;7.05;100.00
68948;BME280;55996;49.546;7.400;2022-11-20T04:58:26;98147.53;;;7.09;100.00
68948;BME280;55996;49.546;7.400;2022-11-20T05:00:51;98143.03;;;7.15;100.00
68948;BME280;55996;49.546;7.400;2022-11-20T05:03:17;98148.31;;;7.41;100.00
68948;BME280;55996;49.546;7.400;2022-11-20T05:05:42;98143.66;;;7.53;100.00
68948;BME280;55996;49.546;7.400;2022-11-20T05:08:08;98139.28;;;7.55;100.00
68948;BME280;55996;49.546;7.400;2022-11-20T05:10:33;98134.88;;;7.57;100.00
68948;BME280;55996;49.546;7.400;2022-11-20T05:12:58;98139.78;;;7.68;100.00
68948;BME280;55996;49.546;7.400;2022-11-20T05:15:24;98129.91;;;7.79;100.00
68948;BME280;55996;49.546;7.400;2022-11-20T05:17:50;98135.69;;;7.87;100.00
68948;BME280;55996;49.546;7.400;2022-11-20T05:20:18;98129.53;;;7.90;100.00
68948;BME280;55996;49.546;7.400;2022-11-20T05:22:44;98128.81;;;7.86;100.00
68948;BME280;55996;49.546;7.400;2022-11-20T05:25:11;98130.91;;;8.02;100.00
68948;BME280;55996;49.546;7.400;2022-11-20T05:27:36;98134.28;;;8.05;100.00
68948;BME280;55996;49.546;7.400;2022-11-20T05:30:05;98134.28;;;8.05;100.00
68948;BME280;55996;49.546;7.400;2022-11-20T05:32:31;98135.94;;;8.08;100.00
68948;BME280;55996;49.546;7.400;2022-11-20T05:34:56;98132.47;;;8.07;100.00
68948;BME280;55996;49.546;7.400;2022-11-20T05:37:21;98138.38;;;8.13;100.00
68948;BME280;55996;49.546;7.400;2022-11-20T05:39:47;98126.56;;;8.29;100.00
68948;BME280;55996;49.546;7.400;2022-11-20T05:42:12;98124.09;;;8.24;100.00
68948;BME280;55996;49.546;7.400;2022-11-20T05:45:01;98128.72;;;8.16;100.00
68948;BME280;55996;49.546;7.400;2022-11-20T05:47:28;98138.97;;;8.21;100.00
68948;BME280;55996;49.546;7.400;2022-11-20T05:49:56;98137.31;;;8.18;100.00
68948;BME280;55996;49.546;7.400;2022-11-20T05:52:21;98133.00;;;8.17;100.00
68948;BME280;55996;49.546;7.400;2022-11-20T05:54:47;98134.84;;;8.15;100.00
68948;BME280;55996;49.546;7.400;2022-11-20T05:57:12;98129.78;;;8.37;100.00
68948;BME280;55996;49.546;7.400;2022-11-20T05:59:38;98130.06;;;8.28;100.00
68948;BME280;55996;49.546;7.400;2022-11-20T06:02:03;98130.94;;;8.29;100.00
68948;BME280;55996;49.546;7.400;2022-11-20T06:04:28;98131.06;;;8.24;100.00
68948;BME280;55996;49.546;7.400;2022-11-20T06:06:54;98133.69;;;8.24;100.00
68948;BME280;55996;49.546;7.400;2022-11-20T06:09:19;98117.72;;;8.35;100.00
68948;BME280;55996;49.546;7.400;2022-11-20T06:11:45;98129.56;;;8.44;100.00
68948;BME280;55996;49.546;7.400;2022-11-20T06:14:10;98133.16;;;8.39;100.00
68948;BME280;55996;49.546;7.400;2022-11-20T06:16:36;98132.28;;;8.40;100.00
68948;BME280;55996;49.546;7.400;2022-11-20T06:19:01;98122.00;;;8.36;100.00
68948;BME280;55996;49.546;7.400;2022-11-20T06:21:27;98122.38;;;8.25;100.00
68948;BME280;55996;49.546;7.400;2022-11-20T06:23:52;98121.28;;;8.32;100.00
68948;BME280;55996;49.546;7.400;2022-11-20T06:26:23;98121.56;;;8.23;100.00
68948;BME280;55996;49.546;7.400;2022-11-20T06:28:50;98133.47;;;8.30;100.00
68948;BME280;55996;49.546;7.400;2022-11-20T06:31:18;98144.09;;;8.78;100.00
68948;BME280;55996;49.546;7.400;2022-11-20T06:33:44;98147.56;;;8.51;100.00
68948;BME280;55996;49.546;7.400;2022-11-20T06:36:12;98136.47;;;8.46;100.00
68948;BME280;55996;49.546;7.400;2022-11-20T06:38:38;98140.78;;;8.46;100.00
68948;BME280;55996;49.546;7.400;2022-11-20T06:41:05;98140.97;;;8.39;100.00
68948;BME280;55996;49.546;7.400;2022-11-20T06:43:30;98140.91;;;8.43;100.00
68948;BME280;55996;49.546;7.400;2022-11-20T06:45:57;98144.34;;;8.43;100.00
68948;BME280;55996;49.546;7.400;2022-11-20T06:48:25;98140.72;;;8.49;100.00
68948;BME280;55996;49.546;7.400;2022-11-20T06:50:50;98139.56;;;8.83;100.00
68948;BME280;55996;49.546;7.400;2022-11-20T06:53:16;98137.38;;;8.70;100.00
68948;BME280;55996;49.546;7.400;2022-11-20T06:55:42;98143.69;;;8.63;100.00
68948;BME280;55996;49.546;7.400;2022-11-20T06:58:09;98146.41;;;8.60;100.00
68948;BME280;55996;49.546;7.400;2022-11-20T07:00:34;98140.09;;;8.67;100.00
68948;BME280;55996;49.546;7.400;2022-11-20T07:03:03;98148.47;;;8.77;100.00
68948;BME280;55996;49.546;7.400;2022-11-20T07:05:28;98149.50;;;8.71;100.00
68948;BME280;55996;49.546;7.400;2022-11-20T07:07:56;98149.78;;;8.64;100.00
68948;BME280;55996;49.546;7.400;2022-11-20T07:10:21;98149.34;;;8.51;100.00
68948;BME280;55996;49.546;7.400;2022-11-20T07:12:51;98157.47;;;8.67;100.00
68948;BME280;55996;49.546;7.400;2022-11-20T07:15:17;98159.09;;;8.71;100.00
68948;BME280;55996;49.546;7.400;2022-11-20T07:17:43;98159.13;;;8.69;100.00
68948;BME280;55996;49.546;7.400;2022-11-20T07:20:09;98158.41;;;8.66;100.00
68948;BME280;55996;49.546;7.400;2022-11-20T07:22:35;98156.69;;;8.90;100.00
68948;BME280;55996;49.546;7.400;2022-11-20T07:25:00;98161.75;;;8.95;100.00
68948;BME280;55996;49.546;7.400;2022-11-20T07:27:27;98170.63;;;8.89;100.00
68948;BME280;55996;49.546;7.400;2022-11-20T07:29:52;98163.25;;;9.02;100.00
68948;BME280;55996;49.546;7.400;2022-11-20T07:32:17;98156.84;;;8.85;100.00
68948;BME280;55996;49.546;7.400;2022-11-20T07:34:43;98166.91;;;8.96;100.00
68948;BME280;55996;49.546;7.400;2022-11-20T07:37:08;98169.56;;;8.95;100.00
68948;BME280;55996;49.546;7.400;2022-11-20T07:39:34;98156.06;;;9.32;100.00
68948;BME280;55996;49.546;7.400;2022-11-20T07:41:59;98165.63;;;9.08;100.00
68948;BME280;55996;49.546;7.400;2022-11-20T07:44:25;98163.13;;;9.05;100.00
68948;BME280;55996;49.546;7.400;2022-11-20T07:46:50;98178.50;;;9.13;100.00
68948;BME280;55996;49.546;7.400;2022-11-20T07:49:15;98180.69;;;9.49;100.00
68948;BME280;55996;49.546;7.400;2022-11-20T07:51:41;98171.03;;;9.51;100.00
68948;BME280;55996;49.546;7.400;2022-11-20T07:54:06;98181.19;;;9.35;100.00
68948;BME280;55996;49.546;7.400;2022-11-20T07:56:32;98175.50;;;9.24;100.00
68948;BME280;55996;49.546;7.400;2022-11-20T07:58:57;98180.88;;;9.19;100.00
68948;BME280;55996;49.546;7.400;2022-11-20T08:01:22;98178.19;;;9.22;100.00
68948;BME280;55996;49.546;7.400;2022-11-20T08:03:48;98186.81;;;9.24;100.00
68948;BME280;55996;49.546;7.400;2022-11-20T08:06:13;98183.25;;;9.25;100.00
68948;BME280;55996;49.546;7.400;2022-11-20T08:08:40;98184.41;;;9.18;100.00
68948;BME280;55996;49.546;7.400;2022-11-20T08:11:06;98178.97;;;9.24;100.00
68948;BME280;55996;49.546;7.400;2022-11-20T08:13:50;98187.19;;;9.37;100.00
68948;BME280;55996;49.546;7.400;2022-11-20T08:16:48;98187.84;;;9.67;100.00
68948;BME280;55996;49.546;7.400;2022-11-20T08:19:16;98186.69;;;9.75;100.00
68948;BME280;55996;49.546;7.400;2022-11-20T08:21:42;98191.34;;;9.66;100.00
68948;BME280;55996;49.546;7.400;2022-11-20T08:24:08;98211.38;;;9.66;100.00
68948;BME280;55996;49.546;7.400;2022-11-20T08:26:35;98191.06;;;9.74;100.00
68948;BME280;55996;49.546;7.400;2022-11-20T08:29:01;98194.50;;;9.75;100.00
68948;BME280;55996;49.546;7.400;2022-11-20T08:31:27;98200.38;;;9.81;100.00
68948;BME280;55996;49.546;7.400;2022-11-20T08:33:53;98211.41;;;9.88;100.00
68948;BME280;55996;49.546;7.400;2022-11-20T08:36:19;98203.81;;;9.82;100.00
68948;BME280;55996;49.546;7.400;2022-11-20T08:38:53;98204.03;;;9.99;100.00
68948;BME280;55996;49.546;7.400;2022-11-20T08:41:19;98203.72;;;9.85;100.00
68948;BME280;55996;49.546;7.400;2022-11-20T08:46:27;98210.84;;;9.56;100.00
68948;BME280;55996;49.546;7.400;2022-11-20T08:48:53;98207.56;;;9.51;100.00
68948;BME280;55996;49.546;7.400;2022-11-20T08:51:19;98219.72;;;9.52;100.00
68948;BME280;55996;49.546;7.400;2022-11-20T08:53:45;98217.75;;;9.33;100.00
68948;BME280;55996;49.546;7.400;2022-11-20T08:56:11;98220.53;;;9.29;100.00
68948;BME280;55996;49.546;7.400;2022-11-20T08:58:37;98218.09;;;9.24;100.00
68948;BME280;55996;49.546;7.400;2022-11-20T09:01:03;98219.47;;;9.34;100.00
68948;BME280;55996;49.546;7.400;2022-11-20T09:03:29;98226.63;;;9.29;100.00
68948;BME280;55996;49.546;7.400;2022-11-20T09:06:03;98220.06;;;9.43;100.00
68948;BME280;55996;49.546;7.400;2022-11-20T09:08:29;98224.03;;;9.53;100.00
68948;BME280;55996;49.546;7.400;2022-11-20T09:10:56;98223.91;;;9.56;100.00
68948;BME280;55996;49.546;7.400;2022-11-20T09:13:23;98225.72;;;10.01;100.00
68948;BME280;55996;49.546;7.400;2022-11-20T09:16:04;98228.22;;;9.81;100.00
68948;BME280;55996;49.546;7.400;2022-11-20T09:18:31;98227.75;;;10.39;100.00
68948;BME280;55996;49.546;7.400;2022-11-20T09:21:04;98213.47;;;10.26;100.00
68948;BME280;55996;49.546;7.400;2022-11-20T09:23:35;98229.06;;;10.51;100.00
68948;BME280;55996;49.546;7.400;2022-11-20T09:26:05;98227.94;;;10.34;100.00
68948;BME280;55996;49.546;7.400;2022-11-20T09:28:31;98232.41;;;10.55;100.00
68948;BME280;55996;49.546;7.400;2022-11-20T09:30:57;98237.06;;;10.46;100.00
68948;BME280;55996;49.546;7.400;2022-11-20T09:33:22;98231.69;;;10.27;100.00
68948;BME280;55996;49.546;7.400;2022-11-20T09:35:48;98221.34;;;10.24;100.00
68948;BME280;55996;49.546;7.400;2022-11-20T09:38:13;98230.88;;;10.49;100.00
68948;BME280;55996;49.546;7.400;2022-11-20T09:40:45;98243.81;;;10.52;100.00
68948;BME280;55996;49.546;7.400;2022-11-20T09:43:18;98242.97;;;10.94;100.00
68948;BME280;55996;49.546;7.400;2022-11-20T09:51:20;98233.03;;;10.82;100.00
68948;BME280;55996;49.546;7.400;2022-11-20T09:54:03;98242.75;;;10.78;100.00
68948;BME280;55996;49.546;7.400;2022-11-20T09:56:33;98233.28;;;10.76;100.00
68948;BME280;55996;49.546;7.400;2022-11-20T09:59:02;98229.50;;;10.83;100.00
68948;BME280;55996;49.546;7.400;2022-11-20T10:01:35;98231.97;;;10.86;100.00
68948;BME280;55996;49.546;7.400;2022-11-20T10:04:04;98233.81;;;10.84;100.00
68948;BME280;55996;49.546;7.400;2022-11-20T10:06:40;98234.25;;;10.94;100.00
68948;BME280;55996;49.546;7.400;2022-11-20T10:14:30;98228.56;;;10.63;100.00
68948;BME280;55996;49.546;7.400;2022-11-20T10:20:27;98241.75;;;10.38;100.00
68948;BME280;55996;49.546;7.400;2022-11-20T10:23:22;98230.75;;;10.52;100.00
68948;BME280;55996;49.546;7.400;2022-11-20T10:31:34;98219.22;;;10.12;100.00
68948;BME280;55996;49.546;7.400;2022-11-20T10:34:28;98212.97;;;10.16;100.00
68948;BME280;55996;49.546;7.400;2022-11-20T10:37:04;98218.06;;;10.19;100.00
68948;BME280;55996;49.546;7.400;2022-11-20T10:42:29;98206.19;;;10.56;100.00
68948;BME280;55996;49.546;7.400;2022-11-20T10:47:59;98198.41;;;10.55;100.00
68948;BME280;55996;49.546;7.400;2022-11-20T10:50:35;98196.63;;;10.55;100.00
68948;BME280;55996;49.546;7.400;2022-11-20T10:56:06;98198.47;;;10.53;100.00
68948;BME280;55996;49.546;7.400;2022-11-20T10:58:45;98189.84;;;10.51;100.00
68948;BME280;55996;49.546;7.400;2022-11-20T11:01:18;98193.03;;;10.58;100.00
68948;BME280;55996;49.546;7.400;2022-11-20T11:03:44;98199.72;;;10.65;100.00
68948;BME280;55996;49.546;7.400;2022-11-20T11:06:21;98195.41;;;10.64;100.00
68948;BME280;55996;49.546;7.400;2022-11-20T11:08:51;98196.38;;;10.61;100.00
68948;BME280;55996;49.546;7.400;2022-11-20T11:11:27;98196.22;;;10.66;100.00
68948;BME280;55996;49.546;7.400;2022-11-20T11:14:13;98187.81;;;10.36;100.00
68948;BME280;55996;49.546;7.400;2022-11-20T11:16:56;98180.94;;;10.55;100.00
68948;BME280;55996;49.546;7.400;2022-11-20T11:19:22;98175.63;;;10.58;100.00
68948;BME280;55996;49.546;7.400;2022-11-20T11:21:53;98179.28;;;10.75;100.00
68948;BME280;55996;49.546;7.400;2022-11-20T11:24:23;98163.22;;;10.84;100.00
68948;BME280;55996;49.546;7.400;2022-11-20T11:26:57;98169.00;;;10.70;100.00
68948;BME280;55996;49.546;7.400;2022-11-20T11:29:24;98159.19;;;10.75;100.00
68948;BME280;55996;49.546;7.400;2022-11-20T11:32:06;98169.22;;;10.86;100.00
68948;BME280;55996;49.546;7.400;2022-11-20T11:34:32;98167.22;;;10.93;100.00
68948;BME280;55996;49.546;7.400;2022-11-20T11:36:58;98170.09;;;10.87;100.00
68948;BME280;55996;49.546;7.400;2022-11-20T11:39:26;98168.81;;;10.75;100.00
68948;BME280;55996;49.546;7.400;2022-11-20T11:41:53;98170.59;;;10.74;100.00
68948;BME280;55996;49.546;7.400;2022-11-20T11:49:45;98159.78;;;10.61;100.00
68948;BME280;55996;49.546;7.400;2022-11-20T11:52:17;98155.28;;;10.65;100.00
68948;BME280;55996;49.546;7.400;2022-11-20T11:54:55;98154.72;;;10.58;100.00
68948;BME280;55996;49.546;7.400;2022-11-20T12:00:06;98155.72;;;10.54;100.00
68948;BME280;55996;49.546;7.400;2022-11-20T12:05:40;98158.94;;;10.61;100.00
68948;BME280;55996;49.546;7.400;2022-11-20T12:08:27;98154.72;;;10.58;100.00
68948;BME280;55996;49.546;7.400;2022-11-20T12:13:56;98149.66;;;10.54;100.00
68948;BME280;55996;49.546;7.400;2022-11-20T12:16:24;98146.72;;;10.61;100.00
68948;BME280;55996;49.546;7.400;2022-11-20T12:18:51;98143.13;;;10.64;100.00
68948;BME280;55996;49.546;7.400;2022-11-20T12:24:15;98137.06;;;10.63;100.00
68948;BME280;55996;49.546;7.400;2022-11-20T12:40:46;98135.78;;;10.09;100.00
68948;BME280;55996;49.546;7.400;2022-11-20T12:43:24;98133.28;;;10.06;100.00
68948;BME280;55996;49.546;7.400;2022-11-20T12:56:56;98107.72;;;10.36;100.00
68948;BME280;55996;49.546;7.400;2022-11-20T13:02:44;98097.06;;;10.61;100.00
68948;BME280;55996;49.546;7.400;2022-11-20T13:07:51;98093.00;;;10.54;100.00
68948;BME280;55996;49.546;7.400;2022-11-20T13:10:31;98093.78;;;10.56;100.00
68948;BME280;55996;49.546;7.400;2022-11-20T13:13:19;98089.28;;;10.60;100.00
68948;BME280;55996;49.546;7.400;2022-11-20T13:16:00;98091.69;;;10.44;100.00
68948;BME280;55996;49.546;7.400;2022-11-20T13:18:39;98088.63;;;10.55;100.00
68948;BME280;55996;49.546;7.400;2022-11-20T13:21:21;98083.97;;;10.61;100.00
68948;BME280;55996;49.546;7.400;2022-11-20T13:23:47;98069.47;;;10.54;100.00
68948;BME280;55996;49.546;7.400;2022-11-20T13:26:19;98065.75;;;10.39;100.00
68948;BME280;55996;49.546;7.400;2022-11-20T13:28:47;98068.06;;;10.47;100.00
68948;BME280;55996;49.546;7.400;2022-11-20T13:31:45;98064.13;;;10.57;100.00
68948;BME280;55996;49.546;7.400;2022-11-20T13:34:22;98066.34;;;10.66;100.00
68948;BME280;55996;49.546;7.400;2022-11-20T13:36:54;98061.19;;;10.65;100.00
68948;BME280;55996;49.546;7.400;2022-11-20T13:39:29;98052.03;;;10.55;100.00
68948;BME280;55996;49.546;7.400;2022-11-20T13:44:48;98051.25;;;10.53;100.00
68948;BME280;55996;49.546;7.400;2022-11-20T13:47:26;98052.38;;;10.47;100.00
68948;BME280;55996;49.546;7.400;2022-11-20T13:49:54;98045.56;;;10.43;100.00
68948;BME280;55996;49.546;7.400;2022-11-20T14:00:18;98040.88;;;10.91;100.00
68948;BME280;55996;49.546;7.400;2022-11-20T14:05:23;98034.53;;;12.08;100.00
68948;BME280;55996;49.546;7.400;2022-11-20T14:07:50;98026.66;;;11.35;100.00
68948;BME280;55996;49.546;7.400;2022-11-20T14:10:28;98027.41;;;11.19;100.00
68948;BME280;55996;49.546;7.400;2022-11-20T14:12:54;98029.06;;;10.82;100.00
68948;BME280;55996;49.546;7.400;2022-11-20T14:15:38;98027.81;;;11.10;100.00
68948;BME280;55996;49.546;7.400;2022-11-20T14:18:19;98026.19;;;10.88;100.00
68948;BME280;55996;49.546;7.400;2022-11-20T14:20:46;98010.53;;;10.68;100.00
68948;BME280;55996;49.546;7.400;2022-11-20T14:23:11;98010.94;;;10.58;100.00
68948;BME280;55996;49.546;7.400;2022-11-20T14:25:37;98010.06;;;11.36;100.00
68948;BME280;55996;49.546;7.400;2022-11-20T14:28:11;98003.19;;;11.33;100.00
68948;BME280;55996;49.546;7.400;2022-11-20T14:30:47;98003.72;;;11.03;100.00
68948;BME280;55996;49.546;7.400;2022-11-20T14:33:14;97999.03;;;11.10;100.00
68948;BME280;55996;49.546;7.400;2022-11-20T14:35:45;98002.56;;;10.71;100.00
68948;BME280;55996;49.546;7.400;2022-11-20T14:38:13;98005.56;;;10.61;100.00
68948;BME280;55996;49.546;7.400;2022-11-20T14:40:39;98005.56;;;10.61;100.00
68948;BME280;55996;49.546;7.400;2022-11-20T14:45:44;97996.06;;;10.40;100.00
68948;BME280;55996;49.546;7.400;2022-11-20T14:48:12;97997.47;;;10.26;100.00
68948;BME280;55996;49.546;7.400;2022-11-20T14:50:38;97993.63;;;10.14;100.00
68948;BME280;55996;49.546;7.400;2022-11-20T14:53:04;97995.28;;;10.38;100.00
68948;BME280;55996;49.546;7.400;2022-11-20T14:55:34;97995.78;;;10.25;100.00